sensor_id;sensor_type;location;lat;lon;timestamp;P1;durP1;ratioP1;P2;durP2;ratioP2
58685;SDS011;44465;53.206;-6.106;2023-04-03T00:00:29;25.40;;;9.13;;
58685;SDS011;44465;53.206;-6.106;2023-04-03T00:02:56;28.17;;;10.57;;
58685;SDS011;44465;53.206;-6.106;2023-04-03T00:05:22;18.15;;;8.32;;
58685;SDS011;44465;53.206;-6.106;2023-04-03T00:07:48;23.52;;;9.23;;
58685;SDS011;44465;53.206;-6.106;2023-04-03T00:10:16;17.48;;;7.88;;
58685;SDS011;44465;53.206;-6.106;2023-04-03T00:12:42;21.13;;;7.75;;
58685;SDS011;44465;53.206;-6.106;2023-04-03T00:15:08;19.40;;;7.60;;
58685;SDS011;44465;53.206;-6.106;2023-04-03T00:17:34;18.38;;;7.80;;
58685;SDS011;44465;53.206;-6.106;2023-04-03T00:20:01;17.63;;;7.03;;
58685;SDS011;44465;53.206;-6.106;2023-04-03T00:24:54;16.83;;;7.00;;
58685;SDS011;44465;53.206;-6.106;2023-04-03T00:27:20;14.27;;;6.32;;
58685;SDS011;44465;53.206;-6.106;2023-04-03T00:29:49;15.82;;;6.20;;
58685;SDS011;44465;53.206;-6.106;2023-04-03T00:32:15;14.27;;;6.28;;
58685;SDS011;44465;53.206;-6.106;2023-04-03T00:34:44;18.33;;;7.03;;
58685;SDS011;44465;53.206;-6.106;2023-04-03T00:37:12;17.05;;;6.38;;
58685;SDS011;44465;53.206;-6.106;2023-04-03T00:39:39;16.70;;;6.82;;
58685;SDS011;44465;53.206;-6.106;2023-04-03T00:42:05;13.80;;;6.20;;
58685;SDS011;44465;53.206;-6.106;2023-04-03T00:46:57;15.55;;;6.22;;
58685;SDS011;44465;53.206;-6.106;2023-04-03T00:49:23;11.77;;;5.53;;
58685;SDS011;44465;53.206;-6.106;2023-04-03T00:51:49;13.65;;;6.05;;
58685;SDS011;44465;53.206;-6.106;2023-04-03T00:54:15;13.27;;;6.25;;
58685;SDS011;44465;53.206;-6.106;2023-04-03T00:56:43;13.85;;;6.50;;
58685;SDS011;44465;53.206;-6.106;2023-04-03T00:59:12;15.68;;;6.03;;
58685;SDS011;44465;53.206;-6.106;2023-04-03T01:01:46;10.80;;;5.13;;
58685;SDS011;44465;53.206;-6.106;2023-04-03T01:04:28;12.57;;;4.80;;
58685;SDS011;44465;53.206;-6.106;2023-04-03T01:06:57;11.35;;;4.95;;
58685;SDS011;44465;53.206;-6.106;2023-04-03T01:09:32;11.35;;;4.35;;
58685;SDS011;44465;53.206;-6.106;2023-04-03T01:12:17;9.13;;;4.82;;
58685;SDS011;44465;53.206;-6.106;2023-04-03T01:17:53;12.88;;;4.25;;
58685;SDS011;44465;53.206;-6.106;2023-04-03T01:20:42;9.85;;;4.85;;
58685;SDS011;44465;53.206;-6.106;2023-04-03T01:25:44;9.88;;;4.68;;
58685;SDS011;44465;53.206;-6.106;2023-04-03T01:28:24;8.85;;;4.18;;
58685;SDS011;44465;53.206;-6.106;2023-04-03T01:33:43;8.30;;;3.90;;
58685;SDS011;44465;53.206;-6.106;2023-04-03T01:36:30;9.30;;;4.47;;
58685;SDS011;44465;53.206;-6.106;2023-04-03T01:38:58;8.95;;;3.67;;
58685;SDS011;44465;53.206;-6.106;2023-04-03T01:41:25;9.02;;;3.70;;
58685;SDS011;44465;53.206;-6.106;2023-04-03T01:43:56;7.18;;;3.88;;
58685;SDS011;44465;53.206;-6.106;2023-04-03T01:46:22;11.18;;;4.20;;
58685;SDS011;44465;53.206;-6.106;2023-04-03T01:48:53;7.45;;;3.67;;
58685;SDS011;44465;53.206;-6.106;2023-04-03T01:51:20;9.02;;;3.90;;
58685;SDS011;44465;53.206;-6.106;2023-04-03T01:53:46;7.38;;;3.33;;
58685;SDS011;44465;53.206;-6.106;2023-04-03T01:56:12;7.32;;;3.58;;
58685;SDS011;44465;53.206;-6.106;2023-04-03T01:58:39;9.00;;;3.38;;
58685;SDS011;44465;53.206;-6.106;2023-04-03T02:01:07;5.82;;;3.70;;
58685;SDS011;44465;53.206;-6.106;2023-04-03T02:03:33;5.50;;;3.08;;
58685;SDS011;44465;53.206;-6.106;2023-04-03T02:05:59;6.35;;;3.08;;
58685;SDS011;44465;53.206;-6.106;2023-04-03T02:08:25;9.30;;;3.80;;
58685;SDS011;44465;53.206;-6.106;2023-04-03T02:10:51;6.03;;;2.90;;
58685;SDS011;44465;53.206;-6.106;2023-04-03T02:13:17;5.65;;;3.20;;
58685;SDS011;44465;53.206;-6.106;2023-04-03T02:15:46;5.32;;;2.90;;
58685;SDS011;44465;53.206;-6.106;2023-04-03T02:18:15;5.70;;;3.10;;
58685;SDS011;44465;53.206;-6.106;2023-04-03T02:20:42;6.03;;;3.17;;
58685;SDS011;44465;53.206;-6.106;2023-04-03T02:23:17;6.30;;;2.97;;
58685;SDS011;44465;53.206;-6.106;2023-04-03T02:25:43;6.70;;;3.15;;
58685;SDS011;44465;53.206;-6.106;2023-04-03T02:28:09;6.50;;;2.90;;
58685;SDS011;44465;53.206;-6.106;2023-04-03T02:30:37;5.20;;;2.80;;
58685;SDS011;44465;53.206;-6.106;2023-04-03T02:33:11;5.25;;;2.80;;
58685;SDS011;44465;53.206;-6.106;2023-04-03T02:35:38;5.32;;;2.65;;
58685;SDS011;44465;53.206;-6.106;2023-04-03T02:38:04;5.30;;;2.63;;
58685;SDS011;44465;53.206;-6.106;2023-04-03T02:40:33;3.55;;;2.55;;
58685;SDS011;44465;53.206;-6.106;2023-04-03T02:43:06;4.45;;;2.17;;
58685;SDS011;44465;53.206;-6.106;2023-04-03T02:45:33;6.10;;;2.78;;
58685;SDS011;44465;53.206;-6.106;2023-04-03T02:47:59;3.63;;;2.30;;
58685;SDS011;44465;53.206;-6.106;2023-04-03T02:50:25;5.30;;;2.55;;
58685;SDS011;44465;53.206;-6.106;2023-04-03T02:52:53;4.60;;;2.15;;
58685;SDS011;44465;53.206;-6.106;2023-04-03T02:59:26;3.25;;;2.15;;
58685;SDS011;44465;53.206;-6.106;2023-04-03T03:01:55;4.13;;;2.58;;
58685;SDS011;44465;53.206;-6.106;2023-04-03T03:04:22;4.85;;;2.42;;
58685;SDS011;44465;53.206;-6.106;2023-04-03T03:06:50;5.68;;;2.10;;
58685;SDS011;44465;53.206;-6.106;2023-04-03T03:13:14;2.83;;;2.05;;
58685;SDS011;44465;53.206;-6.106;2023-04-03T03:15:52;3.47;;;2.13;;
58685;SDS011;44465;53.206;-6.106;2023-04-03T03:18:39;4.78;;;2.20;;
58685;SDS011;44465;53.206;-6.106;2023-04-03T03:21:10;3.97;;;2.15;;
58685;SDS011;44465;53.206;-6.106;2023-04-03T03:26:43;2.90;;;1.92;;
58685;SDS011;44465;53.206;-6.106;2023-04-03T03:29:14;3.78;;;1.90;;
58685;SDS011;44465;53.206;-6.106;2023-04-03T03:31:40;3.33;;;2.00;;
58685;SDS011;44465;53.206;-6.106;2023-04-03T03:34:06;3.30;;;2.05;;
58685;SDS011;44465;53.206;-6.106;2023-04-03T03:36:35;2.95;;;2.00;;
58685;SDS011;44465;53.206;-6.106;2023-04-03T03:39:04;2.75;;;1.65;;
58685;SDS011;44465;53.206;-6.106;2023-04-03T03:41:35;2.72;;;1.80;;
58685;SDS011;44465;53.206;-6.106;2023-04-03T03:50:45;1.90;;;1.70;;
58685;SDS011;44465;53.206;-6.106;2023-04-03T03:57:20;1.83;;;1.55;;
58685;SDS011;44465;53.206;-6.106;2023-04-03T03:59:47;2.33;;;1.60;;
58685;SDS011;44465;53.206;-6.106;2023-04-03T04:02:19;3.55;;;1.98;;
58685;SDS011;44465;53.206;-6.106;2023-04-03T04:04:51;4.07;;;1.67;;
58685;SDS011;44465;53.206;-6.106;2023-04-03T04:07:21;3.25;;;1.90;;
58685;SDS011;44465;53.206;-6.106;2023-04-03T04:09:50;2.80;;;1.80;;
58685;SDS011;44465;53.206;-6.106;2023-04-03T04:16:11;2.55;;;1.60;;
58685;SDS011;44465;53.206;-6.106;2023-04-03T04:18:40;1.75;;;1.60;;
58685;SDS011;44465;53.206;-6.106;2023-04-03T04:21:27;1.67;;;1.40;;
58685;SDS011;44465;53.206;-6.106;2023-04-03T04:27:42;1.60;;;1.50;;
58685;SDS011;44465;53.206;-6.106;2023-04-03T04:30:19;2.50;;;1.63;;
58685;SDS011;44465;53.206;-6.106;2023-04-03T04:33:04;3.00;;;1.42;;
58685;SDS011;44465;53.206;-6.106;2023-04-03T04:35:35;2.47;;;1.60;;
58685;SDS011;44465;53.206;-6.106;2023-04-03T04:38:02;1.47;;;1.30;;
58685;SDS011;44465;53.206;-6.106;2023-04-03T04:40:31;2.65;;;1.73;;
58685;SDS011;44465;53.206;-6.106;2023-04-03T04:43:00;1.60;;;1.50;;
58685;SDS011;44465;53.206;-6.106;2023-04-03T04:46:17;2.63;;;1.40;;
58685;SDS011;44465;53.206;-6.106;2023-04-03T04:48:51;2.10;;;1.23;;
58685;SDS011;44465;53.206;-6.106;2023-04-03T04:51:19;2.40;;;1.88;;
58685;SDS011;44465;53.206;-6.106;2023-04-03T04:53:55;2.13;;;1.40;;
58685;SDS011;44465;53.206;-6.106;2023-04-03T04:56:28;2.47;;;1.38;;
58685;SDS011;44465;53.206;-6.106;2023-04-03T04:58:59;1.58;;;1.48;;
58685;SDS011;44465;53.206;-6.106;2023-04-03T05:01:41;2.60;;;1.60;;
58685;SDS011;44465;53.206;-6.106;2023-04-03T05:10:26;1.63;;;1.40;;
58685;SDS011;44465;53.206;-6.106;2023-04-03T05:13:01;1.50;;;1.33;;
58685;SDS011;44465;53.206;-6.106;2023-04-03T05:15:32;2.10;;;1.60;;
58685;SDS011;44465;53.206;-6.106;2023-04-03T05:17:59;1.58;;;1.38;;
58685;SDS011;44465;53.206;-6.106;2023-04-03T05:20:33;2.08;;;1.60;;
58685;SDS011;44465;53.206;-6.106;2023-04-03T05:23:05;2.55;;;1.50;;
58685;SDS011;44465;53.206;-6.106;2023-04-03T05:25:39;1.30;;;1.20;;
58685;SDS011;44465;53.206;-6.106;2023-04-03T05:28:48;2.03;;;1.25;;
58685;SDS011;44465;53.206;-6.106;2023-04-03T05:31:41;2.75;;;1.60;;
58685;SDS011;44465;53.206;-6.106;2023-04-03T05:34:10;2.63;;;1.50;;
58685;SDS011;44465;53.206;-6.106;2023-04-03T05:36:41;2.65;;;1.70;;
58685;SDS011;44465;53.206;-6.106;2023-04-03T05:43:38;2.90;;;1.67;;
58685;SDS011;44465;53.206;-6.106;2023-04-03T05:46:20;1.70;;;1.60;;
58685;SDS011;44465;53.206;-6.106;2023-04-03T05:48:51;2.65;;;1.52;;
58685;SDS011;44465;53.206;-6.106;2023-04-03T05:51:36;2.20;;;1.40;;
58685;SDS011;44465;53.206;-6.106;2023-04-03T05:54:16;1.77;;;1.67;;
58685;SDS011;44465;53.206;-6.106;2023-04-03T05:56:51;2.25;;;1.40;;
58685;SDS011;44465;53.206;-6.106;2023-04-03T06:02:57;2.65;;;1.85;;
58685;SDS011;44465;53.206;-6.106;2023-04-03T06:05:31;3.30;;;1.60;;
58685;SDS011;44465;53.206;-6.106;2023-04-03T06:07:57;1.90;;;1.70;;
58685;SDS011;44465;53.206;-6.106;2023-04-03T06:14:19;2.17;;;1.52;;
58685;SDS011;44465;53.206;-6.106;2023-04-03T06:16:49;2.50;;;1.97;;
58685;SDS011;44465;53.206;-6.106;2023-04-03T06:19:27;2.03;;;1.75;;
58685;SDS011;44465;53.206;-6.106;2023-04-03T06:21:55;2.35;;;1.80;;
58685;SDS011;44465;53.206;-6.106;2023-04-03T06:24:33;1.70;;;1.60;;
58685;SDS011;44465;53.206;-6.106;2023-04-03T06:27:11;3.35;;;1.65;;
58685;SDS011;44465;53.206;-6.106;2023-04-03T06:29:47;3.63;;;1.70;;
58685;SDS011;44465;53.206;-6.106;2023-04-03T06:32:22;1.50;;;1.40;;
58685;SDS011;44465;53.206;-6.106;2023-04-03T06:35:16;2.97;;;1.83;;
58685;SDS011;44465;53.206;-6.106;2023-04-03T06:37:42;2.47;;;1.65;;
58685;SDS011;44465;53.206;-6.106;2023-04-03T06:40:18;3.17;;;1.90;;
58685;SDS011;44465;53.206;-6.106;2023-04-03T06:42:47;4.25;;;1.98;;
58685;SDS011;44465;53.206;-6.106;2023-04-03T06:45:13;2.30;;;2.10;;
58685;SDS011;44465;53.206;-6.106;2023-04-03T06:50:28;2.22;;;1.92;;
58685;SDS011;44465;53.206;-6.106;2023-04-03T06:52:56;2.53;;;1.90;;
58685;SDS011;44465;53.206;-6.106;2023-04-03T06:55:24;2.13;;;1.83;;
58685;SDS011;44465;53.206;-6.106;2023-04-03T06:57:52;1.83;;;1.67;;
58685;SDS011;44465;53.206;-6.106;2023-04-03T07:00:18;3.60;;;1.80;;
58685;SDS011;44465;53.206;-6.106;2023-04-03T07:03:04;3.20;;;1.85;;
58685;SDS011;44465;53.206;-6.106;2023-04-03T07:05:42;2.45;;;1.98;;
58685;SDS011;44465;53.206;-6.106;2023-04-03T07:08:14;2.10;;;1.90;;
58685;SDS011;44465;53.206;-6.106;2023-04-03T07:10:40;2.30;;;1.80;;
58685;SDS011;44465;53.206;-6.106;2023-04-03T07:13:09;3.03;;;2.10;;
58685;SDS011;44465;53.206;-6.106;2023-04-03T07:15:37;2.00;;;1.77;;
58685;SDS011;44465;53.206;-6.106;2023-04-03T07:18:15;2.55;;;1.98;;
58685;SDS011;44465;53.206;-6.106;2023-04-03T07:20:43;3.08;;;2.25;;
58685;SDS011;44465;53.206;-6.106;2023-04-03T07:23:09;4.25;;;2.17;;
58685;SDS011;44465;53.206;-6.106;2023-04-03T07:25:36;2.50;;;1.83;;
58685;SDS011;44465;53.206;-6.106;2023-04-03T07:28:03;4.35;;;1.83;;
58685;SDS011;44465;53.206;-6.106;2023-04-03T07:30:32;9.32;;;2.05;;
58685;SDS011;44465;53.206;-6.106;2023-04-03T07:32:58;5.93;;;2.10;;
58685;SDS011;44465;53.206;-6.106;2023-04-03T07:35:23;4.82;;;2.33;;
58685;SDS011;44465;53.206;-6.106;2023-04-03T07:37:49;10.95;;;3.55;;
58685;SDS011;44465;53.206;-6.106;2023-04-03T07:40:16;5.20;;;2.00;;
58685;SDS011;44465;53.206;-6.106;2023-04-03T07:42:42;8.48;;;2.03;;
58685;SDS011;44465;53.206;-6.106;2023-04-03T07:45:07;5.50;;;1.80;;
58685;SDS011;44465;53.206;-6.106;2023-04-03T07:47:34;4.55;;;2.00;;
58685;SDS011;44465;53.206;-6.106;2023-04-03T07:50:00;4.97;;;2.03;;
58685;SDS011;44465;53.206;-6.106;2023-04-03T07:52:26;3.35;;;2.10;;
58685;SDS011;44465;53.206;-6.106;2023-04-03T07:54:52;5.40;;;2.20;;
58685;SDS011;44465;53.206;-6.106;2023-04-03T07:57:17;5.97;;;1.95;;
58685;SDS011;44465;53.206;-6.106;2023-04-03T07:59:46;2.50;;;1.90;;
58685;SDS011;44465;53.206;-6.106;2023-04-03T08:02:18;2.47;;;2.00;;
58685;SDS011;44465;53.206;-6.106;2023-04-03T08:04:44;5.10;;;2.20;;
58685;SDS011;44465;53.206;-6.106;2023-04-03T08:07:10;12.48;;;2.13;;
58685;SDS011;44465;53.206;-6.106;2023-04-03T08:09:36;5.05;;;2.30;;
58685;SDS011;44465;53.206;-6.106;2023-04-03T08:12:02;2.47;;;2.28;;
58685;SDS011;44465;53.206;-6.106;2023-04-03T08:14:30;3.58;;;1.92;;
58685;SDS011;44465;53.206;-6.106;2023-04-03T08:16:59;4.47;;;2.05;;
58685;SDS011;44465;53.206;-6.106;2023-04-03T08:19:26;2.67;;;1.63;;
58685;SDS011;44465;53.206;-6.106;2023-04-03T08:21:53;2.13;;;1.38;;
58685;SDS011;44465;53.206;-6.106;2023-04-03T08:24:20;4.28;;;2.20;;
58685;SDS011;44465;53.206;-6.106;2023-04-03T08:26:46;1.80;;;1.70;;
58685;SDS011;44465;53.206;-6.106;2023-04-03T08:29:11;3.95;;;1.80;;
58685;SDS011;44465;53.206;-6.106;2023-04-03T08:31:38;6.85;;;2.60;;
58685;SDS011;44465;53.206;-6.106;2023-04-03T08:34:04;3.63;;;1.85;;
58685;SDS011;44465;53.206;-6.106;2023-04-03T08:36:30;3.17;;;1.88;;
58685;SDS011;44465;53.206;-6.106;2023-04-03T08:38:56;4.70;;;1.98;;
58685;SDS011;44465;53.206;-6.106;2023-04-03T08:41:31;2.17;;;1.60;;
58685;SDS011;44465;53.206;-6.106;2023-04-03T08:47:17;3.90;;;1.80;;
58685;SDS011;44465;53.206;-6.106;2023-04-03T08:49:46;2.60;;;1.90;;
58685;SDS011;44465;53.206;-6.106;2023-04-03T08:52:20;2.75;;;1.67;;
58685;SDS011;44465;53.206;-6.106;2023-04-03T08:58:03;4.22;;;1.88;;
58685;SDS011;44465;53.206;-6.106;2023-04-03T09:03:13;2.25;;;1.48;;
58685;SDS011;44465;53.206;-6.106;2023-04-03T09:08:27;2.83;;;1.90;;
58685;SDS011;44465;53.206;-6.106;2023-04-03T09:11:16;4.05;;;1.80;;
58685;SDS011;44465;53.206;-6.106;2023-04-03T09:17:00;5.68;;;2.17;;
58685;SDS011;44465;53.206;-6.106;2023-04-03T09:22:31;7.70;;;2.25;;
58685;SDS011;44465;53.206;-6.106;2023-04-03T09:25:10;7.45;;;2.60;;
58685;SDS011;44465;53.206;-6.106;2023-04-03T09:27:44;6.57;;;2.20;;
58685;SDS011;44465;53.206;-6.106;2023-04-03T09:30:15;13.15;;;2.60;;
58685;SDS011;44465;53.206;-6.106;2023-04-03T09:32:46;7.28;;;2.10;;
58685;SDS011;44465;53.206;-6.106;2023-04-03T09:38:01;11.65;;;2.78;;
58685;SDS011;44465;53.206;-6.106;2023-04-03T09:40:42;15.30;;;3.20;;
58685;SDS011;44465;53.206;-6.106;2023-04-03T09:43:21;13.13;;;2.92;;
58685;SDS011;44465;53.206;-6.106;2023-04-03T09:45:54;13.30;;;2.88;;
58685;SDS011;44465;53.206;-6.106;2023-04-03T09:48:25;12.25;;;3.47;;
58685;SDS011;44465;53.206;-6.106;2023-04-03T09:51:00;18.00;;;3.95;;
58685;SDS011;44465;53.206;-6.106;2023-04-03T09:53:36;221.88;;;23.83;;
58685;SDS011;44465;53.206;-6.106;2023-04-03T09:58:42;30.58;;;5.47;;
58685;SDS011;44465;53.206;-6.106;2023-04-03T10:06:41;17.15;;;3.90;;
58685;SDS011;44465;53.206;-6.106;2023-04-03T10:09:31;28.20;;;4.47;;
58685;SDS011;44465;53.206;-6.106;2023-04-03T10:12:02;29.65;;;5.00;;
58685;SDS011;44465;53.206;-6.106;2023-04-03T10:14:31;24.40;;;4.10;;
58685;SDS011;44465;53.206;-6.106;2023-04-03T10:19:30;19.45;;;4.47;;
58685;SDS011;44465;53.206;-6.106;2023-04-03T10:22:02;16.80;;;3.97;;
58685;SDS011;44465;53.206;-6.106;2023-04-03T10:29:36;16.17;;;3.33;;
58685;SDS011;44465;53.206;-6.106;2023-04-03T10:35:33;16.05;;;3.55;;
58685;SDS011;44465;53.206;-6.106;2023-04-03T10:46:18;15.73;;;2.70;;
58685;SDS011;44465;53.206;-6.106;2023-04-03T10:51:45;9.23;;;2.58;;
58685;SDS011;44465;53.206;-6.106;2023-04-03T10:56:53;9.50;;;3.25;;
58685;SDS011;44465;53.206;-6.106;2023-04-03T10:59:28;10.85;;;3.10;;
58685;SDS011;44465;53.206;-6.106;2023-04-03T11:08:26;35.35;;;5.15;;
58685;SDS011;44465;53.206;-6.106;2023-04-03T11:11:03;38.03;;;5.90;;
58685;SDS011;44465;53.206;-6.106;2023-04-03T11:13:40;42.25;;;5.47;;
58685;SDS011;44465;53.206;-6.106;2023-04-03T11:16:29;39.72;;;5.57;;
58685;SDS011;44465;53.206;-6.106;2023-04-03T11:24:27;27.38;;;4.00;;
58685;SDS011;44465;53.206;-6.106;2023-04-03T11:26:56;21.45;;;4.15;;
58685;SDS011;44465;53.206;-6.106;2023-04-03T11:29:26;23.50;;;5.28;;
58685;SDS011;44465;53.206;-6.106;2023-04-03T11:34:45;16.98;;;3.65;;
58685;SDS011;44465;53.206;-6.106;2023-04-03T11:39:45;19.73;;;4.38;;
58685;SDS011;44465;53.206;-6.106;2023-04-03T11:42:17;15.10;;;3.65;;
58685;SDS011;44465;53.206;-6.106;2023-04-03T11:44:51;16.30;;;4.70;;
58685;SDS011;44465;53.206;-6.106;2023-04-03T11:48:02;12.48;;;3.17;;
58685;SDS011;44465;53.206;-6.106;2023-04-03T11:53:00;20.20;;;4.32;;
58685;SDS011;44465;53.206;-6.106;2023-04-03T12:37:54;148.00;;;54.33;;
58685;SDS011;44465;53.206;-6.106;2023-04-03T12:48:37;126.07;;;43.42;;
58685;SDS011;44465;53.206;-6.106;2023-04-03T12:51:55;116.20;;;39.15;;
58685;SDS011;44465;53.206;-6.106;2023-04-03T12:54:16;104.20;;;36.47;;
58685;SDS011;44465;53.206;-6.106;2023-04-03T12:56:45;90.05;;;33.10;;
58685;SDS011;44465;53.206;-6.106;2023-04-03T12:59:15;82.82;;;32.55;;
58685;SDS011;44465;53.206;-6.106;2023-04-03T13:04:52;78.32;;;31.30;;
58685;SDS011;44465;53.206;-6.106;2023-04-03T13:07:30;80.43;;;32.42;;
58685;SDS011;44465;53.206;-6.106;2023-04-03T13:09:59;80.38;;;29.85;;
58685;SDS011;44465;53.206;-6.106;2023-04-03T13:12:32;75.60;;;31.67;;
58685;SDS011;44465;53.206;-6.106;2023-04-03T13:14:59;71.95;;;28.88;;
58685;SDS011;44465;53.206;-6.106;2023-04-03T13:17:34;67.30;;;27.42;;
58685;SDS011;44465;53.206;-6.106;2023-04-03T13:20:11;62.30;;;27.50;;
58685;SDS011;44465;53.206;-6.106;2023-04-03T13:22:47;59.70;;;28.52;;
58685;SDS011;44465;53.206;-6.106;2023-04-03T13:25:16;65.10;;;28.33;;
58685;SDS011;44465;53.206;-6.106;2023-04-03T13:27:48;58.47;;;28.70;;
58685;SDS011;44465;53.206;-6.106;2023-04-03T13:30:22;66.50;;;29.83;;
58685;SDS011;44465;53.206;-6.106;2023-04-03T13:32:57;68.40;;;31.10;;
58685;SDS011;44465;53.206;-6.106;2023-04-03T13:37:55;72.85;;;31.88;;
58685;SDS011;44465;53.206;-6.106;2023-04-03T13:40:23;70.47;;;33.47;;
58685;SDS011;44465;53.206;-6.106;2023-04-03T13:42:59;72.22;;;35.33;;
58685;SDS011;44465;53.206;-6.106;2023-04-03T13:45:30;84.45;;;35.33;;
58685;SDS011;44465;53.206;-6.106;2023-04-03T13:51:01;78.80;;;35.17;;
58685;SDS011;44465;53.206;-6.106;2023-04-03T13:53:30;80.18;;;35.47;;
58685;SDS011;44465;53.206;-6.106;2023-04-03T13:58:29;81.90;;;35.30;;
58685;SDS011;44465;53.206;-6.106;2023-04-03T14:06:19;88.55;;;38.67;;
58685;SDS011;44465;53.206;-6.106;2023-04-03T14:08:45;86.57;;;40.83;;
58685;SDS011;44465;53.206;-6.106;2023-04-03T14:11:15;87.43;;;39.17;;
58685;SDS011;44465;53.206;-6.106;2023-04-03T14:13:47;94.25;;;41.70;;
58685;SDS011;44465;53.206;-6.106;2023-04-03T14:16:15;96.30;;;42.97;;
58685;SDS011;44465;53.206;-6.106;2023-04-03T14:18:44;83.70;;;40.88;;
58685;SDS011;44465;53.206;-6.106;2023-04-03T14:21:13;85.72;;;40.88;;
58685;SDS011;44465;53.206;-6.106;2023-04-03T14:23:41;83.22;;;41.22;;
58685;SDS011;44465;53.206;-6.106;2023-04-03T14:26:11;92.40;;;41.45;;
58685;SDS011;44465;53.206;-6.106;2023-04-03T14:28:39;89.13;;;40.00;;
58685;SDS011;44465;53.206;-6.106;2023-04-03T14:31:06;77.05;;;38.33;;
58685;SDS011;44465;53.206;-6.106;2023-04-03T14:33:32;82.22;;;40.65;;
58685;SDS011;44465;53.206;-6.106;2023-04-03T14:36:00;77.60;;;38.88;;
58685;SDS011;44465;53.206;-6.106;2023-04-03T14:38:29;71.22;;;36.80;;
58685;SDS011;44465;53.206;-6.106;2023-04-03T14:40:56;71.63;;;37.97;;
58685;SDS011;44465;53.206;-6.106;2023-04-03T14:43:23;75.55;;;38.22;;
58685;SDS011;44465;53.206;-6.106;2023-04-03T14:45:49;77.38;;;40.17;;
58685;SDS011;44465;53.206;-6.106;2023-04-03T14:48:23;81.83;;;41.53;;
58685;SDS011;44465;53.206;-6.106;2023-04-03T14:50:51;86.72;;;40.45;;
58685;SDS011;44465;53.206;-6.106;2023-04-03T14:53:20;78.72;;;39.75;;
58685;SDS011;44465;53.206;-6.106;2023-04-03T14:55:50;92.80;;;40.30;;
58685;SDS011;44465;53.206;-6.106;2023-04-03T14:58:17;93.40;;;42.22;;
58685;SDS011;44465;53.206;-6.106;2023-04-03T15:00:45;88.18;;;39.33;;
58685;SDS011;44465;53.206;-6.106;2023-04-03T15:03:19;95.45;;;39.17;;
58685;SDS011;44465;53.206;-6.106;2023-04-03T15:05:46;97.20;;;38.65;;
58685;SDS011;44465;53.206;-6.106;2023-04-03T15:08:21;80.97;;;38.35;;
58685;SDS011;44465;53.206;-6.106;2023-04-03T15:10:51;85.45;;;38.00;;
58685;SDS011;44465;53.206;-6.106;2023-04-03T15:13:18;85.70;;;38.73;;
58685;SDS011;44465;53.206;-6.106;2023-04-03T15:15:44;74.07;;;35.73;;
58685;SDS011;44465;53.206;-6.106;2023-04-03T15:18:13;76.50;;;36.08;;
58685;SDS011;44465;53.206;-6.106;2023-04-03T15:20:42;64.90;;;31.58;;
58685;SDS011;44465;53.206;-6.106;2023-04-03T15:23:08;62.80;;;33.20;;
58685;SDS011;44465;53.206;-6.106;2023-04-03T15:25:35;61.92;;;33.17;;
58685;SDS011;44465;53.206;-6.106;2023-04-03T15:28:01;59.60;;;31.10;;
58685;SDS011;44465;53.206;-6.106;2023-04-03T15:30:27;56.33;;;31.55;;
58685;SDS011;44465;53.206;-6.106;2023-04-03T15:32:52;66.85;;;31.70;;
58685;SDS011;44465;53.206;-6.106;2023-04-03T15:35:18;58.67;;;30.10;;
58685;SDS011;44465;53.206;-6.106;2023-04-03T15:37:44;55.67;;;30.65;;
58685;SDS011;44465;53.206;-6.106;2023-04-03T15:40:09;63.55;;;32.25;;
58685;SDS011;44465;53.206;-6.106;2023-04-03T15:42:35;59.00;;;32.60;;
58685;SDS011;44465;53.206;-6.106;2023-04-03T15:45:01;61.00;;;30.73;;
58685;SDS011;44465;53.206;-6.106;2023-04-03T15:47:27;53.97;;;31.73;;
58685;SDS011;44465;53.206;-6.106;2023-04-03T15:49:53;64.05;;;30.63;;
58685;SDS011;44465;53.206;-6.106;2023-04-03T15:52:20;57.30;;;29.98;;
58685;SDS011;44465;53.206;-6.106;2023-04-03T15:54:45;55.47;;;31.10;;
58685;SDS011;44465;53.206;-6.106;2023-04-03T15:57:11;53.70;;;30.63;;
58685;SDS011;44465;53.206;-6.106;2023-04-03T15:59:36;51.35;;;30.13;;
58685;SDS011;44465;53.206;-6.106;2023-04-03T16:02:02;57.03;;;31.15;;
58685;SDS011;44465;53.206;-6.106;2023-04-03T16:04:31;52.58;;;29.85;;
58685;SDS011;44465;53.206;-6.106;2023-04-03T16:07:00;54.73;;;27.43;;
58685;SDS011;44465;53.206;-6.106;2023-04-03T16:09:27;52.35;;;25.65;;
58685;SDS011;44465;53.206;-6.106;2023-04-03T16:11:52;49.38;;;24.00;;
58685;SDS011;44465;53.206;-6.106;2023-04-03T16:14:18;45.85;;;24.02;;
58685;SDS011;44465;53.206;-6.106;2023-04-03T16:16:43;45.00;;;23.48;;
58685;SDS011;44465;53.206;-6.106;2023-04-03T16:19:09;43.28;;;21.27;;
58685;SDS011;44465;53.206;-6.106;2023-04-03T16:21:35;42.75;;;21.48;;
58685;SDS011;44465;53.206;-6.106;2023-04-03T16:24:00;38.15;;;20.67;;
58685;SDS011;44465;53.206;-6.106;2023-04-03T16:26:27;36.83;;;19.17;;
58685;SDS011;44465;53.206;-6.106;2023-04-03T16:28:53;33.35;;;19.00;;
58685;SDS011;44465;53.206;-6.106;2023-04-03T16:31:18;39.97;;;18.13;;
58685;SDS011;44465;53.206;-6.106;2023-04-03T16:33:45;34.70;;;17.13;;
58685;SDS011;44465;53.206;-6.106;2023-04-03T16:36:10;37.65;;;16.60;;
58685;SDS011;44465;53.206;-6.106;2023-04-03T16:38:36;33.35;;;17.08;;
58685;SDS011;44465;53.206;-6.106;2023-04-03T16:41:01;35.78;;;17.08;;
58685;SDS011;44465;53.206;-6.106;2023-04-03T16:45:58;33.20;;;15.25;;
58685;SDS011;44465;53.206;-6.106;2023-04-03T16:48:23;30.30;;;15.80;;
58685;SDS011;44465;53.206;-6.106;2023-04-03T16:50:49;34.10;;;17.00;;
58685;SDS011;44465;53.206;-6.106;2023-04-03T16:53:18;28.98;;;16.15;;
58685;SDS011;44465;53.206;-6.106;2023-04-03T16:55:48;32.00;;;16.50;;
58685;SDS011;44465;53.206;-6.106;2023-04-03T16:58:14;34.60;;;16.55;;
58685;SDS011;44465;53.206;-6.106;2023-04-03T17:00:40;34.63;;;16.75;;
58685;SDS011;44465;53.206;-6.106;2023-04-03T17:03:05;34.38;;;17.05;;
58685;SDS011;44465;53.206;-6.106;2023-04-03T17:05:31;31.50;;;16.73;;
58685;SDS011;44465;53.206;-6.106;2023-04-03T17:07:57;34.88;;;17.88;;
58685;SDS011;44465;53.206;-6.106;2023-04-03T17:10:23;32.88;;;17.60;;
58685;SDS011;44465;53.206;-6.106;2023-04-03T17:12:48;33.35;;;17.70;;
58685;SDS011;44465;53.206;-6.106;2023-04-03T17:15:14;32.90;;;17.50;;
58685;SDS011;44465;53.206;-6.106;2023-04-03T17:17:40;33.92;;;16.67;;
58685;SDS011;44465;53.206;-6.106;2023-04-03T17:20:06;27.08;;;15.15;;
58685;SDS011;44465;53.206;-6.106;2023-04-03T17:22:32;28.52;;;15.85;;
58685;SDS011;44465;53.206;-6.106;2023-04-03T17:24:58;30.90;;;15.82;;
58685;SDS011;44465;53.206;-6.106;2023-04-03T17:27:23;30.63;;;16.58;;
58685;SDS011;44465;53.206;-6.106;2023-04-03T17:29:49;32.45;;;17.17;;
58685;SDS011;44465;53.206;-6.106;2023-04-03T17:32:15;34.17;;;17.48;;
58685;SDS011;44465;53.206;-6.106;2023-04-03T17:34:41;30.95;;;18.30;;
58685;SDS011;44465;53.206;-6.106;2023-04-03T17:37:06;30.17;;;16.85;;
58685;SDS011;44465;53.206;-6.106;2023-04-03T17:39:32;29.85;;;16.08;;
58685;SDS011;44465;53.206;-6.106;2023-04-03T17:41:58;30.25;;;16.80;;
58685;SDS011;44465;53.206;-6.106;2023-04-03T17:44:25;35.65;;;20.13;;
58685;SDS011;44465;53.206;-6.106;2023-04-03T17:46:51;29.17;;;17.52;;
58685;SDS011;44465;53.206;-6.106;2023-04-03T17:49:16;31.08;;;18.92;;
58685;SDS011;44465;53.206;-6.106;2023-04-03T17:54:10;36.65;;;20.40;;
58685;SDS011;44465;53.206;-6.106;2023-04-03T17:56:36;34.97;;;18.48;;
58685;SDS011;44465;53.206;-6.106;2023-04-03T17:59:02;37.35;;;20.25;;
58685;SDS011;44465;53.206;-6.106;2023-04-03T18:01:28;38.25;;;21.27;;
58685;SDS011;44465;53.206;-6.106;2023-04-03T18:03:57;33.75;;;20.67;;
58685;SDS011;44465;53.206;-6.106;2023-04-03T18:09:14;35.90;;;20.33;;
58685;SDS011;44465;53.206;-6.106;2023-04-03T18:11:44;38.67;;;22.73;;